Time;durP1;ratioP1;P1;durP2;ratioP2;P2;SDS_P1;SDS_P2;PMS_P1;PMS_P2;Temp;Humidity;BMP_temperature;BMP_pressure;BME280_temperature;BME280_humidity;BME280_pressure;Samples;Min_cycle;Max_cycle;Signal;HPM_P1;HPM_P2
2023/10/12 00:02:04;;;;;;;14.50;9.00;;;20.20;99.90;;;;;;4974319;28;20462;-79
2023/10/12 00:04:38;;;;;;;9.80;8.00;;;20.20;99.90;;;;;;4960479;28;21047;-80
2023/10/12 00:07:14;;;;;;;9.40;6.93;;;20.20;99.90;;;;;;4972371;28;20541;-85
2023/10/12 00:09:47;;;;;;;9.73;7.40;;;20.20;99.90;;;;;;4968476;28;20502;-87
2023/10/12 00:12:15;;;;;;;12.47;10.20;;;20.20;99.90;;;;;;4975051;28;20530;-90
2023/10/12 00:14:42;;;;;;;13.13;11.80;;;20.20;99.90;;;;;;4972790;28;20467;-79
2023/10/12 00:17:09;;;;;;;9.87;8.00;;;20.20;99.90;;;;;;4965250;28;20466;-79
2023/10/12 00:19:38;;;;;;;9.53;6.77;;;20.20;99.90;;;;;;4972877;28;20968;-80
2023/10/12 00:22:11;;;;;;;9.20;7.30;;;20.30;99.90;;;;;;4969361;28;20525;-88
2023/10/12 00:24:39;;;;;;;13.40;9.50;;;20.30;99.90;;;;;;4970132;28;20490;-80
2023/10/12 00:27:08;;;;;;;11.30;9.30;;;20.20;99.90;;;;;;4971010;28;20459;-80
2023/10/12 00:29:39;;;;;;;11.63;6.73;;;20.30;99.90;;;;;;4967065;28;20479;-79
2023/10/12 00:32:06;;;;;;;13.50;8.67;;;20.30;99.90;;;;;;4963676;28;20459;-86
2023/10/12 00:34:46;;;;;;;17.57;10.90;;;20.40;99.90;;;;;;4970155;28;20513;-80
2023/10/12 00:37:14;;;;;;;14.70;9.50;;;20.40;99.90;;;;;;4967345;28;20557;-87
2023/10/12 00:39:56;;;;;;;13.43;10.17;;;20.40;99.90;;;;;;4973839;28;20530;-79
2023/10/12 00:42:29;;;;;;;8.70;5.93;;;20.50;99.90;;;;;;4974381;28;20992;-86
2023/10/12 00:44:56;;;;;;;9.53;7.23;;;20.50;99.90;;;;;;4962168;28;20617;-85
2023/10/12 00:47:43;;;;;;;10.90;8.50;;;20.50;99.90;;;;;;4958539;28;20534;-79
2023/10/12 00:50:12;;;;;;;9.97;8.23;;;20.50;99.90;;;;;;4974278;28;20569;-79
2023/10/12 00:52:54;;;;;;;11.37;6.70;;;20.50;99.90;;;;;;4973068;28;20541;-80
2023/10/12 00:55:23;;;;;;;9.57;5.63;;;20.50;99.90;;;;;;4972125;28;21189;-78
2023/10/12 00:57:52;;;;;;;7.77;5.40;;;20.60;99.90;;;;;;4973814;28;20554;-79
2023/10/12 01:00:20;;;;;;;7.80;6.37;;;20.60;99.90;;;;;;4973713;28;20530;-79
2023/10/12 01:05:37;;;;;;;6.73;4.90;;;20.70;99.90;;;;;;4973076;28;20545;-80
2023/10/12 01:08:05;;;;;;;7.97;5.50;;;20.70;99.90;;;;;;4982629;28;20478;-79
2023/10/12 01:10:33;;;;;;;8.70;6.70;;;20.70;99.90;;;;;;4974309;28;20558;-80
2023/10/12 01:13:01;;;;;;;8.17;7.20;;;20.70;99.90;;;;;;4973947;28;21024;-88
2023/10/12 01:15:32;;;;;;;8.07;6.50;;;20.70;99.90;;;;;;4975915;28;20478;-80
2023/10/12 01:17:59;;;;;;;8.10;7.20;;;20.70;99.90;;;;;;4974131;28;20479;-79
2023/10/12 01:20:26;;;;;;;11.77;9.60;;;20.70;99.90;;;;;;4964901;28;20483;-88
2023/10/12 01:22:57;;;;;;;11.73;9.67;;;20.60;99.90;;;;;;4955211;29;20495;-79
2023/10/12 01:25:29;;;;;;;11.20;8.27;;;20.70;99.90;;;;;;4965865;28;20557;-89
2023/10/12 01:28:01;;;;;;;10.47;8.10;;;20.70;99.90;;;;;;4980582;28;20856;-91
2023/10/12 01:30:29;;;;;;;8.90;7.43;;;20.70;99.90;;;;;;4979121;28;20539;-80
2023/10/12 01:32:57;;;;;;;11.07;6.33;;;20.70;99.90;;;;;;4976797;28;20885;-89
2023/10/12 01:35:32;;;;;;;9.00;4.47;;;20.60;99.90;;;;;;4979177;28;20467;-82
2023/10/12 01:38:01;;;;;;;14.53;8.90;;;20.70;99.90;;;;;;4976309;28;20474;-89
2023/10/12 01:40:41;;;;;;;8.90;6.00;;;20.70;99.90;;;;;;4974790;28;20984;-81
2023/10/12 01:43:12;;;;;;;8.50;5.47;;;20.70;99.90;;;;;;4975397;28;20466;-79
2023/10/12 01:45:43;;;;;;;8.93;5.70;;;20.70;99.90;;;;;;4977613;28;20498;-89
2023/10/12 01:48:15;;;;;;;8.70;7.73;;;20.60;99.90;;;;;;4982037;28;20505;-79
2023/10/12 01:50:42;;;;;;;7.80;7.00;;;20.70;99.90;;;;;;4959862;29;20456;-87
2023/10/12 01:53:24;;;;;;;10.50;8.60;;;20.70;99.90;;;;;;4966436;29;20503;-88
2023/10/12 01:55:52;;;;;;;9.00;6.83;;;20.60;99.90;;;;;;4968171;28;20839;-88
2023/10/12 01:58:19;;;;;;;9.07;6.47;;;20.60;99.90;;;;;;4969464;29;20624;-89
2023/10/12 02:00:51;;;;;;;9.50;5.80;;;20.60;99.90;;;;;;4963128;29;20473;-80
2023/10/12 02:03:26;;;;;;;9.93;4.40;;;20.60;99.90;;;;;;4957884;29;20538;-80
2023/10/12 02:05:58;;;;;;;9.70;6.50;;;20.60;99.90;;;;;;4958099;28;20455;-80
2023/10/12 02:08:32;;;;;;;6.40;5.27;;;20.60;99.90;;;;;;4954643;28;20482;-88
2023/10/12 02:11:06;;;;;;;7.50;5.73;;;20.60;99.90;;;;;;4981952;28;20481;-79
2023/10/12 02:13:35;;;;;;;5.27;4.03;;;20.60;99.90;;;;;;4981049;28;20475;-88
2023/10/12 02:16:03;;;;;;;4.93;4.43;;;20.60;99.90;;;;;;4979188;28;20561;-79
2023/10/12 02:18:32;;;;;;;5.67;4.90;;;20.60;99.90;;;;;;4986916;28;20471;-89
2023/10/12 02:23:57;;;;;;;11.77;6.40;;;20.50;99.90;;;;;;4959258;29;20456;-89
2023/10/12 02:26:35;;;;;;;12.70;6.50;;;20.60;99.90;;;;;;4958499;28;20467;-90
2023/10/12 02:29:11;;;;;;;9.77;7.00;;;20.50;99.90;;;;;;4962127;29;20463;-78
2023/10/12 02:31:40;;;;;;;5.80;4.70;;;20.50;99.90;;;;;;4960383;29;20467;-87
2023/10/12 02:34:12;;;;;;;8.57;6.23;;;20.50;99.90;;;;;;4959654;28;20479;-80
2023/10/12 02:36:39;;;;;;;8.13;6.37;;;20.40;99.90;;;;;;4957572;29;20468;-80
2023/10/12 02:39:15;;;;;;;8.77;7.33;;;20.50;99.90;;;;;;4957932;29;20538;-79
2023/10/12 02:41:49;;;;;;;10.60;8.20;;;20.40;99.90;;;;;;4957988;29;20534;-78
2023/10/12 02:44:18;;;;;;;8.10;5.73;;;20.40;99.90;;;;;;4976185;28;20957;-90
2023/10/12 02:47:00;;;;;;;10.77;6.50;;;20.30;99.90;;;;;;4976511;28;20484;-90
2023/10/12 02:49:29;;;;;;;10.40;6.63;;;20.30;99.90;;;;;;4977332;28;20968;-79
2023/10/12 02:51:57;;;;;;;9.40;7.50;;;20.30;99.90;;;;;;4956527;28;20490;-88
2023/10/12 02:54:32;;;;;;;10.77;6.77;;;20.30;99.90;;;;;;4956645;28;20487;-79
2023/10/12 02:57:03;;;;;;;14.60;8.87;;;20.30;99.90;;;;;;4956515;29;20479;-80
2023/10/12 02:59:36;;;;;;;13.30;8.37;;;20.20;99.90;;;;;;4957325;29;20813;-79
2023/10/12 03:02:19;;;;;;;11.67;7.73;;;20.20;99.90;;;;;;4957352;29;20996;-88
2023/10/12 03:04:46;;;;;;;9.90;7.20;;;20.20;99.90;;;;;;4956250;28;20546;-89
2023/10/12 03:07:22;;;;;;;10.47;7.63;;;20.20;99.90;;;;;;4956513;29;20467;-80
2023/10/12 03:09:55;;;;;;;9.80;6.77;;;20.10;99.90;;;;;;4956950;29;20478;-79
2023/10/12 03:12:33;;;;;;;10.43;9.33;;;20.20;99.90;;;;;;4957357;29;20468;-80
2023/10/12 03:15:01;;;;;;;10.13;7.20;;;20.20;99.90;;;;;;4956142;28;20503;-81
2023/10/12 03:17:28;;;;;;;12.73;6.13;;;20.20;99.90;;;;;;4958523;29;20472;-78
2023/10/12 03:20:02;;;;;;;12.30;8.73;;;20.10;99.90;;;;;;4959500;29;20978;-79
2023/10/12 03:22:34;;;;;;;10.17;7.37;;;20.10;99.90;;;;;;4957014;29;20478;-79
2023/10/12 03:25:19;;;;;;;8.73;7.13;;;20.10;99.90;;;;;;4956505;28;20547;-79
2023/10/12 03:27:55;;;;;;;13.53;6.93;;;20.00;99.90;;;;;;4956654;29;20476;-79
2023/10/12 03:30:34;;;;;;;13.27;7.27;;;20.00;99.90;;;;;;4956911;29;20464;-78
2023/10/12 03:33:03;;;;;;;12.73;9.93;;;19.90;99.90;;;;;;4956377;29;20530;-79
2023/10/12 03:35:34;;;;;;;13.70;7.67;;;19.90;99.90;;;;;;4956674;28;20464;-79
2023/10/12 03:38:12;;;;;;;11.63;7.43;;;19.80;99.90;;;;;;4956284;29;20472;-78
2023/10/12 03:41:45;;;;;;;10.23;7.37;;;19.80;99.90;;;;;;4956511;29;20966;-79
2023/10/12 03:43:41;;;;;;;10.93;7.77;;;19.80;99.90;;;;;;4956071;29;20475;-78
2023/10/12 03:46:17;;;;;;;9.93;7.67;;;19.70;99.90;;;;;;4956336;28;20807;-79
2023/10/12 03:49:05;;;;;;;14.00;12.23;;;19.70;99.90;;;;;;4956088;29;20514;-80
2023/10/12 03:51:40;;;;;;;12.60;9.10;;;19.60;99.90;;;;;;4953057;29;20491;-79
2023/10/12 03:54:18;;;;;;;8.30;6.90;;;19.60;99.90;;;;;;4956742;28;20511;-88
2023/10/12 03:56:48;;;;;;;16.90;8.23;;;19.60;99.90;;;;;;4948424;29;20475;-88
2023/10/12 03:59:19;;;;;;;10.97;6.67;;;19.50;99.90;;;;;;4956479;29;20468;-88
2023/10/12 04:01:54;;;;;;;8.00;5.57;;;19.50;99.90;;;;;;4955605;29;20472;-79
2023/10/12 04:04:29;;;;;;;8.47;7.07;;;19.40;99.90;;;;;;4955962;28;20507;-78
2023/10/12 04:09:42;;;;;;;10.07;7.40;;;19.30;99.90;;;;;;4952017;29;20958;-78
2023/10/12 04:15:26;;;;;;;10.00;7.27;;;19.20;99.90;;;;;;4952133;28;20464;-89
2023/10/12 04:18:06;;;;;;;8.20;6.70;;;19.10;99.90;;;;;;4955372;29;20451;-88
2023/10/12 04:20:48;;;;;;;10.00;8.87;;;19.10;99.90;;;;;;4955228;29;20866;-88
2023/10/12 09:21:29;;;;;;;5.67;2.90;;;16.40;99.90;;;;;;4944927;29;20506;-78
2023/10/12 09:24:05;;;;;;;9.70;4.30;;;16.40;99.90;;;;;;4917942;29;20472;-78
2023/10/12 09:26:47;;;;;;;7.10;3.03;;;16.40;99.90;;;;;;4954650;29;20825;-78
2023/10/12 09:29:27;;;;;;;8.23;3.60;;;16.40;99.90;;;;;;4955139;29;20467;-78
2023/10/12 09:35:10;;;;;;;6.70;2.80;;;16.50;99.90;;;;;;5100510;27;20549;-79
2023/10/12 09:37:53;;;;;;;10.00;3.30;;;16.50;99.90;;;;;;5072551;28;20535;-87
2023/10/12 09:40:35;;;;;;;11.27;4.37;;;16.60;99.90;;;;;;5093684;28;20818;-87
2023/10/12 09:43:12;;;;;;;11.80;7.00;;;16.60;99.90;;;;;;5072893;28;20465;-87
2023/10/12 09:45:47;;;;;;;6.60;3.13;;;16.60;99.90;;;;;;5079828;28;20533;-88
2023/10/12 09:48:24;;;;;;;7.03;3.50;;;16.70;99.90;;;;;;5090085;28;20620;-78
2023/10/12 09:51:02;;;;;;;8.07;4.30;;;16.70;99.90;;;;;;5080375;28;20939;-79
2023/10/12 09:53:40;;;;;;;5.20;3.27;;;16.70;99.90;;;;;;5090544;28;20469;-88
2023/10/12 09:56:15;;;;;;;4.03;2.23;;;16.70;99.90;;;;;;5091409;28;20536;-88
2023/10/12 09:58:52;;;;;;;8.07;4.03;;;16.80;99.90;;;;;;5089793;28;20540;-87
2023/10/12 10:01:49;;;;;;;9.20;2.60;;;16.80;99.90;;;;;;5090149;28;20519;-79
2023/10/12 10:04:28;;;;;;;6.30;2.80;;;16.80;99.90;;;;;;5076568;28;20466;-78
2023/10/12 10:07:15;;;;;;;7.03;3.43;;;16.90;99.90;;;;;;5090335;28;20789;-86
2023/10/12 10:09:49;;;;;;;7.50;3.53;;;16.90;99.90;;;;;;5090875;28;20465;-87
2023/10/12 10:12:18;;;;;;;9.37;3.70;;;17.00;99.90;;;;;;5090715;28;20473;-87
2023/10/12 10:14:52;;;;;;;9.77;2.83;;;17.00;99.90;;;;;;5095518;28;20470;-87
2023/10/12 10:17:27;;;;;;;9.93;2.30;;;17.00;99.90;;;;;;5090341;28;20469;-88
2023/10/12 10:28:58;;;;;;;10.03;4.37;;;17.10;99.90;;;;;;5089586;28;20553;-86
2023/10/12 10:31:27;;;;;;;5.80;3.83;;;17.20;99.90;;;;;;5092172;28;20842;-86
2023/10/12 10:34:01;;;;;;;3.80;3.50;;;17.20;99.90;;;;;;5076896;28;20540;-80
2023/10/12 10:36:34;;;;;;;4.80;3.07;;;17.20;99.90;;;;;;5091186;28;20469;-87
2023/10/12 10:39:28;;;;;;;9.80;3.73;;;17.30;99.90;;;;;;5089720;28;20481;-80
2023/10/12 10:42:04;;;;;;;8.70;2.80;;;17.30;99.90;;;;;;5089723;28;20807;-78
2023/10/12 10:44:42;;;;;;;17.50;3.43;;;17.30;99.90;;;;;;5086077;28;20462;-77
2023/10/12 10:47:15;;;;;;;2.90;2.50;;;17.30;99.90;;;;;;5075421;28;20473;-88
2023/10/12 10:49:45;;;;;;;9.83;4.17;;;17.30;99.90;;;;;;5065241;28;21077;-79
2023/10/12 10:52:14;;;;;;;11.30;4.27;;;17.30;99.90;;;;;;5074438;28;20563;-79
2023/10/12 10:55:00;;;;;;;6.80;4.23;;;17.30;99.90;;;;;;5078314;28;20470;-88
2023/10/12 10:57:40;;;;;;;6.80;2.27;;;17.30;99.90;;;;;;5065812;28;20924;-87
2023/10/12 11:00:16;;;;;;;8.47;4.50;;;17.30;99.90;;;;;;5075068;28;20474;-79
2023/10/12 11:02:47;;;;;;;3.37;3.00;;;17.30;99.90;;;;;;5065803;28;20482;-88
2023/10/12 11:05:19;;;;;;;11.50;3.50;;;17.40;99.90;;;;;;5076453;28;20495;-86
2023/10/12 11:07:52;;;;;;;5.60;3.40;;;17.40;99.90;;;;;;5078669;28;20520;-87
2023/10/12 11:10:31;;;;;;;9.50;3.33;;;17.40;99.90;;;;;;5077188;28;20473;-79
2023/10/12 11:13:04;;;;;;;5.40;2.23;;;17.40;99.90;;;;;;5076145;28;21019;-78
2023/10/12 11:15:33;;;;;;;8.80;5.00;;;17.50;99.90;;;;;;5077844;28;20462;-86
2023/10/12 11:18:07;;;;;;;5.90;2.63;;;17.50;99.90;;;;;;5083345;28;20493;-87
2023/10/12 11:20:43;;;;;;;8.03;3.00;;;17.50;99.90;;;;;;5088230;28;20462;-87
2023/10/12 11:23:11;;;;;;;7.60;4.30;;;17.50;99.90;;;;;;5078721;28;20545;-87
2023/10/12 11:25:43;;;;;;;6.70;2.83;;;17.50;99.90;;;;;;5078219;28;20470;-86
2023/10/12 11:28:20;;;;;;;6.87;3.83;;;17.50;99.90;;;;;;5078542;28;21033;-88
2023/10/12 11:30:51;;;;;;;7.67;3.00;;;17.60;99.90;;;;;;5077824;28;20878;-88
2023/10/12 11:33:25;;;;;;;5.27;2.90;;;17.60;99.90;;;;;;5076661;28;20470;-87
2023/10/12 11:36:00;;;;;;;5.80;2.40;;;17.60;99.90;;;;;;5078608;28;20500;-88
2023/10/12 11:38:30;;;;;;;10.23;3.50;;;17.70;99.90;;;;;;5077463;28;20468;-88
2023/10/12 11:41:13;;;;;;;5.10;2.33;;;17.70;99.90;;;;;;5088285;28;20489;-86
2023/10/12 11:43:49;;;;;;;5.37;2.40;;;17.70;99.90;;;;;;5078759;28;20850;-87
2023/10/12 11:46:23;;;;;;;6.90;3.50;;;17.80;99.90;;;;;;5078028;28;21120;-87
2023/10/12 11:49:10;;;;;;;6.97;3.70;;;17.80;99.90;;;;;;5078517;28;20474;-87
2023/10/12 11:51:50;;;;;;;5.40;2.93;;;17.80;99.90;;;;;;5078718;28;20458;-88
2023/10/12 11:54:21;;;;;;;7.97;4.00;;;17.80;99.90;;;;;;5077953;28;21041;-87
2023/10/12 11:56:51;;;;;;;6.97;3.03;;;17.90;99.90;;;;;;5078003;28;20463;-87
2023/10/12 11:59:26;;;;;;;6.57;3.80;;;17.80;99.90;;;;;;5078405;28;20532;-87
2023/10/12 12:02:06;;;;;;;9.23;4.87;;;17.80;99.90;;;;;;5089216;28;20534;-87
2023/10/12 12:04:39;;;;;;;5.53;3.40;;;17.90;99.90;;;;;;5068701;28;20490;-87
2023/10/12 12:07:10;;;;;;;6.90;2.83;;;17.90;99.90;;;;;;5077773;28;20542;-88
2023/10/12 12:09:40;;;;;;;5.00;3.50;;;17.90;99.90;;;;;;5066551;28;20466;-87
2023/10/12 12:12:16;;;;;;;5.27;3.00;;;17.90;99.90;;;;;;5077936;28;20474;-87
2023/10/12 12:14:47;;;;;;;6.53;3.27;;;17.90;99.90;;;;;;5057503;28;20465;-87
2023/10/12 12:17:20;;;;;;;8.87;5.10;;;18.00;99.90;;;;;;5055835;28;20497;-87
2023/10/12 12:19:47;;;;;;;11.23;4.87;;;18.00;99.90;;;;;;5076872;28;20521;-85
2023/10/12 12:22:14;;;;;;;13.00;5.87;;;18.00;99.90;;;;;;5077821;28;20796;-87
2023/10/12 12:24:44;;;;;;;8.70;4.07;;;18.00;99.90;;;;;;5065638;28;20557;-86
2023/10/12 12:27:37;;;;;;;5.57;2.90;;;18.00;99.90;;;;;;5074786;28;20462;-78
2023/10/12 12:30:07;;;;;;;9.40;4.10;;;18.10;99.90;;;;;;5077350;28;20508;-78
2023/10/12 12:32:34;;;;;;;11.10;7.20;;;18.10;99.90;;;;;;5071932;28;20477;-78
2023/10/12 12:35:02;;;;;;;8.37;4.63;;;18.10;99.90;;;;;;5078784;28;20463;-78
2023/10/12 12:37:35;;;;;;;8.90;4.70;;;18.10;99.90;;;;;;5091615;28;20466;-78
2023/10/12 12:40:27;;;;;;;6.67;4.00;;;18.10;99.90;;;;;;5077589;28;20477;-79
2023/10/12 12:43:07;;;;;;;8.50;3.77;;;18.10;99.90;;;;;;5085690;28;20463;-79
2023/10/12 12:45:36;;;;;;;7.37;3.27;;;18.10;99.90;;;;;;5063420;28;20831;-80
2023/10/12 12:48:06;;;;;;;6.10;3.20;;;18.20;99.90;;;;;;5073061;28;20478;-80
2023/10/12 12:50:35;;;;;;;8.47;4.17;;;18.20;99.90;;;;;;5045720;28;20462;-87
2023/10/12 12:53:06;;;;;;;8.27;3.50;;;18.20;99.90;;;;;;5074201;28;20498;-89
2023/10/12 12:55:47;;;;;;;6.47;3.57;;;18.20;99.90;;;;;;5073769;28;20477;-80
2023/10/12 12:58:24;;;;;;;4.60;2.80;;;18.30;99.90;;;;;;5074299;28;20515;-87
2023/10/12 13:01:10;;;;;;;10.77;3.07;;;18.30;99.90;;;;;;5075975;28;20545;-87
2023/10/12 13:03:42;;;;;;;4.90;3.23;;;18.30;99.90;;;;;;5061400;28;20547;-88
2023/10/12 13:06:19;;;;;;;7.27;3.53;;;18.30;99.90;;;;;;5063194;28;20567;-87
2023/10/12 13:08:55;;;;;;;5.13;2.57;;;18.30;99.90;;;;;;5073287;28;20462;-87
2023/10/12 13:11:23;;;;;;;6.57;2.57;;;18.30;99.90;;;;;;5073474;28;20462;-87
2023/10/12 13:14:05;;;;;;;5.70;4.27;;;18.30;99.90;;;;;;5072523;28;20470;-87
2023/10/12 13:16:40;;;;;;;5.23;2.43;;;18.30;99.90;;;;;;5059170;28;20494;-79
2023/10/12 13:19:11;;;;;;;5.40;3.03;;;18.30;99.90;;;;;;5047603;28;21102;-79
2023/10/12 13:21:43;;;;;;;6.20;3.10;;;18.30;99.90;;;;;;5072128;28;20473;-79
2023/10/12 13:24:44;;;;;;;6.63;2.80;;;18.30;99.90;;;;;;5059781;28;20477;-79
2023/10/12 13:27:20;;;;;;;6.80;3.80;;;18.30;99.90;;;;;;5061472;28;20968;-87
2023/10/12 13:30:09;;;;;;;6.03;2.50;;;18.30;99.90;;;;;;5028578;28;20488;-87
2023/10/12 13:33:00;;;;;;;6.00;2.83;;;18.30;99.90;;;;;;5061477;28;20501;-86
2023/10/12 13:35:55;;;;;;;6.87;2.90;;;18.30;99.90;;;;;;5072306;28;20463;-86
2023/10/12 13:38:34;;;;;;;9.33;2.00;;;18.30;99.90;;;;;;5060697;28;20474;-85
2023/10/12 13:41:02;;;;;;;5.70;3.10;;;18.30;99.90;;;;;;5063792;28;20535;-78
2023/10/12 13:43:34;;;;;;;4.73;2.33;;;18.30;99.90;;;;;;5058255;28;20481;-80
2023/10/12 13:46:12;;;;;;;9.77;3.87;;;18.30;99.90;;;;;;5062479;28;20486;-79
2023/10/12 13:48:48;;;;;;;6.37;2.70;;;18.30;99.90;;;;;;5071516;28;20541;-87
2023/10/12 13:51:23;;;;;;;7.03;3.70;;;18.30;99.90;;;;;;5064464;28;20531;-88
2023/10/12 13:53:53;;;;;;;6.80;3.07;;;18.30;99.90;;;;;;5072270;28;20466;-80
2023/10/12 13:56:24;;;;;;;12.33;7.20;;;18.30;99.90;;;;;;5061755;28;20466;-78
2023/10/12 14:01:36;;;;;;;7.03;3.67;;;18.20;99.90;;;;;;5061148;28;20476;-80
2023/10/12 14:04:28;;;;;;;9.10;3.90;;;18.20;99.90;;;;;;5062366;28;20466;-88
2023/10/12 14:07:01;;;;;;;2.70;2.20;;;18.20;99.90;;;;;;5074848;28;20466;-88
2023/10/12 14:09:29;;;;;;;6.10;3.20;;;18.20;99.90;;;;;;5069107;28;20458;-80
2023/10/12 14:11:56;;;;;;;8.67;3.27;;;18.20;99.90;;;;;;5072641;28;20482;-87
2023/10/12 14:14:24;;;;;;;10.90;2.73;;;18.20;99.90;;;;;;5072371;28;20467;-79
2023/10/12 14:16:54;;;;;;;7.77;2.40;;;18.20;99.90;;;;;;5071518;28;20465;-79
2023/10/12 14:19:28;;;;;;;9.50;2.50;;;18.20;99.90;;;;;;5072035;28;20785;-79
2023/10/12 14:21:58;;;;;;;5.60;2.37;;;18.20;99.90;;;;;;5066743;28;20501;-79
2023/10/12 14:24:33;;;;;;;6.23;3.77;;;18.20;99.90;;;;;;5075378;28;20497;-79
2023/10/12 14:27:00;;;;;;;3.20;1.73;;;18.20;99.90;;;;;;5064013;28;20474;-79
2023/10/12 14:29:29;;;;;;;9.60;4.23;;;18.20;99.90;;;;;;5075733;28;20462;-79
2023/10/12 14:32:02;;;;;;;5.87;2.70;;;18.20;99.90;;;;;;5075426;28;20470;-78
2023/10/12 14:34:31;;;;;;;4.20;2.60;;;18.10;99.90;;;;;;5075055;28;20472;-79
2023/10/12 14:36:58;;;;;;;8.00;2.37;;;18.20;99.90;;;;;;5075833;28;20549;-79
2023/10/12 14:39:29;;;;;;;3.93;1.97;;;18.20;99.90;;;;;;5077203;28;20505;-87
2023/10/12 14:41:56;;;;;;;4.87;2.80;;;18.20;99.90;;;;;;5076802;28;20462;-86
2023/10/12 14:44:27;;;;;;;5.90;2.20;;;18.10;99.90;;;;;;5075111;28;20467;-79
2023/10/12 14:46:59;;;;;;;4.73;2.33;;;18.20;99.90;;;;;;5076122;28;21139;-79
2023/10/12 14:49:26;;;;;;;6.43;2.43;;;18.10;99.90;;;;;;5074672;28;20545;-79
2023/10/12 14:51:53;;;;;;;3.80;2.50;;;18.10;99.90;;;;;;5074630;28;20466;-80
2023/10/12 14:54:23;;;;;;;6.17;2.83;;;18.10;99.90;;;;;;5056776;28;20916;-88
2023/10/12 14:56:53;;;;;;;11.03;2.20;;;18.10;99.90;;;;;;5066692;28;20462;-87
2023/10/12 14:59:21;;;;;;;4.20;2.40;;;18.10;99.90;;;;;;5076341;28;20547;-87
2023/10/12 15:01:51;;;;;;;6.20;2.50;;;18.10;99.90;;;;;;5053989;28;20475;-79
2023/10/12 15:04:20;;;;;;;4.43;2.23;;;18.10;99.90;;;;;;5055310;28;20483;-79
2023/10/12 15:06:49;;;;;;;7.37;1.93;;;18.10;99.90;;;;;;5056809;28;20542;-88
2023/10/12 15:09:24;;;;;;;5.17;2.10;;;18.00;99.90;;;;;;5059507;28;20523;-79
2023/10/12 15:11:51;;;;;;;6.20;1.93;;;18.00;99.90;;;;;;5074912;28;20469;-79
2023/10/12 15:14:19;;;;;;;4.80;2.27;;;18.00;99.90;;;;;;5075141;28;20508;-80
2023/10/12 15:16:48;;;;;;;4.90;2.17;;;18.00;99.90;;;;;;5056842;28;20516;-79
2023/10/12 15:19:18;;;;;;;4.00;2.37;;;18.00;99.90;;;;;;5074571;28;21019;-78
2023/10/12 15:21:49;;;;;;;4.07;2.10;;;18.00;99.90;;;;;;5072710;28;20572;-79
2023/10/12 15:24:27;;;;;;;3.80;1.90;;;18.00;99.90;;;;;;5075494;28;20474;-88
2023/10/12 15:26:59;;;;;;;8.33;2.90;;;18.00;99.90;;;;;;5073973;28;20529;-88
2023/10/12 15:29:26;;;;;;;5.03;3.00;;;17.90;99.90;;;;;;5063705;28;20557;-87
2023/10/12 15:31:54;;;;;;;11.40;3.13;;;17.90;99.90;;;;;;5089296;28;20489;-87
2023/10/12 15:34:21;;;;;;;3.90;2.37;;;17.90;99.90;;;;;;5089585;28;20466;-86
2023/10/12 15:36:49;;;;;;;5.53;2.63;;;17.90;99.90;;;;;;5087076;28;20482;-87
2023/10/12 15:39:17;;;;;;;5.90;2.20;;;17.80;99.90;;;;;;5089576;28;20470;-86
2023/10/12 15:41:48;;;;;;;4.93;2.97;;;17.80;99.90;;;;;;5091673;28;20466;-87
2023/10/12 15:44:18;;;;;;;4.13;2.87;;;17.80;99.90;;;;;;5069523;28;20463;-88
2023/10/12 15:46:45;;;;;;;8.33;4.00;;;17.80;99.90;;;;;;5071447;28;20809;-88
2023/10/12 15:49:13;;;;;;;6.40;2.83;;;17.70;99.90;;;;;;5073863;28;20528;-86
2023/10/12 15:51:40;;;;;;;4.00;2.77;;;17.70;99.90;;;;;;5073416;28;21970;-85
2023/10/12 15:54:11;;;;;;;4.77;2.63;;;17.70;99.90;;;;;;5074038;28;20466;-85
2023/10/12 15:56:39;;;;;;;6.07;3.10;;;17.70;99.90;;;;;;5075230;28;20537;-86
2023/10/12 15:59:06;;;;;;;5.63;5.13;;;17.70;99.90;;;;;;5074931;28;20474;-85
2023/10/12 16:01:39;;;;;;;6.53;3.10;;;17.70;99.90;;;;;;5064284;28;20510;-79
2023/10/12 16:04:08;;;;;;;4.90;2.80;;;17.70;99.90;;;;;;5072783;28;20534;-79
2023/10/12 16:06:36;;;;;;;7.70;2.70;;;17.60;99.90;;;;;;5055619;28;20949;-87
2023/10/12 16:09:09;;;;;;;5.83;2.20;;;17.60;99.90;;;;;;5056728;28;20479;-85
2023/10/12 16:11:38;;;;;;;5.60;2.90;;;17.60;99.90;;;;;;5056456;28;20497;-86
2023/10/12 16:14:06;;;;;;;7.23;2.47;;;17.60;99.90;;;;;;5056357;28;20525;-86
2023/10/12 16:16:33;;;;;;;8.10;2.33;;;17.60;99.90;;;;;;5061956;28;20539;-86
2023/10/12 16:19:06;;;;;;;2.50;2.30;;;17.60;99.90;;;;;;5067006;28;20471;-84
2023/10/12 16:21:33;;;;;;;3.90;2.53;;;17.60;99.90;;;;;;5073390;28;20442;-85
2023/10/12 16:24:01;;;;;;;6.27;3.30;;;17.50;99.90;;;;;;5092650;28;20466;-85
2023/10/12 16:26:31;;;;;;;3.50;2.17;;;17.50;99.90;;;;;;5081427;28;20462;-83
2023/10/12 16:29:00;;;;;;;5.83;2.00;;;17.50;99.90;;;;;;5076530;28;20459;-85
2023/10/12 16:31:34;;;;;;;5.47;1.97;;;17.50;99.90;;;;;;5080971;28;20459;-86
2023/10/12 16:34:03;;;;;;;5.40;2.53;;;17.50;99.90;;;;;;5087926;28;20480;-86
2023/10/12 16:36:30;;;;;;;3.47;1.90;;;17.50;99.90;;;;;;5082794;28;20459;-80
2023/10/12 16:39:00;;;;;;;4.40;1.80;;;17.50;99.90;;;;;;5078102;28;20473;-86
2023/10/12 16:41:27;;;;;;;4.40;2.60;;;17.50;99.90;;;;;;5075298;28;20545;-86
2023/10/12 16:43:55;;;;;;;5.33;2.40;;;17.50;99.90;;;;;;5080200;28;20473;-85
2023/10/12 16:46:24;;;;;;;4.40;2.80;;;17.40;99.90;;;;;;5071036;28;20521;-86
2023/10/12 16:48:57;;;;;;;6.87;2.83;;;17.40;99.90;;;;;;5079123;28;20485;-86
2023/10/12 16:51:26;;;;;;;5.13;2.40;;;17.40;99.90;;;;;;5080270;28;20462;-86
2023/10/12 16:53:55;;;;;;;6.50;3.00;;;17.40;99.90;;;;;;5072679;28;20462;-85
2023/10/12 16:56:23;;;;;;;8.17;4.13;;;17.40;99.90;;;;;;5076319;28;20498;-85
2023/10/12 16:58:51;;;;;;;8.20;4.20;;;17.40;99.90;;;;;;5084248;28;20457;-85
2023/10/12 17:01:20;;;;;;;4.70;3.30;;;17.40;99.90;;;;;;5085575;28;20864;-84
2023/10/12 17:03:49;;;;;;;3.70;3.00;;;17.40;99.90;;;;;;5073390;28;20471;-78
2023/10/12 17:06:16;;;;;;;18.17;9.00;;;17.40;99.90;;;;;;5067590;28;20462;-78
2023/10/12 17:08:43;;;;;;;9.77;6.10;;;17.30;99.90;;;;;;5069056;28;20474;-78
2023/10/12 17:11:11;;;;;;;7.90;5.00;;;17.20;99.90;;;;;;5071254;28;20474;-79
2023/10/12 17:13:38;;;;;;;9.17;4.30;;;17.30;99.90;;;;;;5069028;28;21011;-79
2023/10/12 17:16:06;;;;;;;6.07;3.83;;;17.20;99.90;;;;;;5069358;28;20850;-79
2023/10/12 17:18:34;;;;;;;7.70;4.00;;;17.20;99.90;;;;;;5078312;28;20466;-78
2023/10/12 17:21:12;;;;;;;11.23;4.03;;;17.20;99.90;;;;;;5075096;28;20474;-79
2023/10/12 17:23:45;;;;;;;9.80;3.27;;;17.20;99.90;;;;;;5060780;28;20458;-78
2023/10/12 17:26:13;;;;;;;9.03;3.07;;;17.20;99.90;;;;;;5068587;28;20520;-78
2023/10/12 17:28:40;;;;;;;7.10;2.83;;;17.10;99.90;;;;;;5069019;28;20474;-78
2023/10/12 17:31:07;;;;;;;3.80;2.40;;;17.10;99.90;;;;;;5072272;28;20490;-77
2023/10/12 17:33:34;;;;;;;4.40;2.80;;;17.20;99.90;;;;;;5063356;28;20470;-80
2023/10/12 17:36:10;;;;;;;6.13;3.10;;;17.20;99.90;;;;;;5071445;28;20473;-78
2023/10/12 17:38:37;;;;;;;7.80;3.50;;;17.20;99.90;;;;;;5077531;28;20515;-77
2023/10/12 17:41:05;;;;;;;13.37;5.63;;;17.20;99.90;;;;;;5077919;28;20454;-79
2023/10/12 17:43:32;;;;;;;7.77;3.97;;;17.20;99.90;;;;;;5082384;28;20777;-77
2023/10/12 17:45:59;;;;;;;11.00;4.00;;;17.20;99.90;;;;;;5082067;28;20462;-77
2023/10/12 17:48:34;;;;;;;8.47;3.10;;;17.20;99.90;;;;;;5073350;28;20490;-78
2023/10/12 17:51:03;;;;;;;7.53;3.10;;;17.20;99.90;;;;;;5052170;28;20458;-83
2023/10/12 17:53:34;;;;;;;6.20;2.87;;;17.20;99.90;;;;;;5070576;28;20471;-83
2023/10/12 17:56:01;;;;;;;8.53;3.70;;;17.20;99.90;;;;;;5087262;28;20474;-83
2023/10/12 17:58:28;;;;;;;4.80;2.93;;;17.20;99.90;;;;;;5087678;28;20470;-83
2023/10/12 18:00:55;;;;;;;8.03;2.93;;;17.20;99.90;;;;;;5093519;28;20462;-83
2023/10/12 18:03:23;;;;;;;5.43;3.10;;;17.20;99.90;;;;;;5094108;28;20454;-83
2023/10/12 18:05:56;;;;;;;3.80;3.10;;;17.20;99.90;;;;;;5093550;28;20537;-77
2023/10/12 18:08:25;;;;;;;4.93;2.40;;;17.20;99.90;;;;;;5080173;28;20476;-77
2023/10/12 18:11:01;;;;;;;6.73;3.00;;;17.20;99.90;;;;;;5072692;28;20980;-77
2023/10/12 18:13:28;;;;;;;5.33;2.80;;;17.20;99.90;;;;;;5074383;28;20465;-79
2023/10/12 18:18:37;;;;;;;5.07;2.43;;;17.10;99.90;;;;;;5066501;28;20481;-80
2023/10/12 18:21:05;;;;;;;4.80;2.67;;;17.10;99.90;;;;;;5079756;28;20454;-79
2023/10/12 18:23:38;;;;;;;5.70;3.30;;;17.10;99.90;;;;;;5089503;28;20478;-80
2023/10/12 18:26:05;;;;;;;7.63;3.73;;;17.10;99.90;;;;;;5083360;28;20463;-79
2023/10/12 18:28:32;;;;;;;7.40;3.30;;;17.10;99.90;;;;;;5071253;28;20470;-80
2023/10/12 18:31:00;;;;;;;8.40;3.03;;;17.10;99.90;;;;;;5082627;28;20530;-80
2023/10/12 18:33:32;;;;;;;7.00;3.10;;;17.10;99.90;;;;;;5075508;28;20467;-83
2023/10/12 18:36:00;;;;;;;5.67;2.90;;;17.10;99.90;;;;;;5076204;28;20498;-79
2023/10/12 18:38:32;;;;;;;8.27;3.93;;;17.10;99.90;;;;;;5067459;28;20470;-79
2023/10/12 18:41:05;;;;;;;5.20;3.10;;;17.10;99.90;;;;;;5073257;28;20462;-79